Thursday, July 19, 2018, 1:47 AM EDT
Back to Local

KBFD, Bradford Regional Airport

Location: Cyclone, PA, United States Lat: 41.8
Local Time: 1:47 AM EDT ( 5:47 GMT) Lon: -78.633
Time Zone: US/Eastern Elev: 2142 ft

Show me the last for .
Show Decoded

2018-07-19 00:53 METAR KBFD 190453Z AUTO 00000KT 10SM CLR 11/10 A3012 RMK AO2 SLP193 T01110100
                 402440100 =
2018-07-18 23:53 METAR KBFD 190353Z AUTO 00000KT 10SM CLR 11/11 A3011 RMK AO2 SLP188 T01110106 =
2018-07-18 22:53 METAR KBFD 190253Z AUTO 00000KT 10SM CLR 14/11 A3010 RMK AO2 SLP185 T01390111
                 53010 =
2018-07-18 21:53 METAR KBFD 190153Z AUTO 00000KT 10SM CLR 15/12 A3009 RMK AO2 SLP181 T01500122 =
2018-07-18 20:53 METAR KBFD 190053Z AUTO 33004KT 10SM CLR 17/11 A3008 RMK AO2 SLP177 T01670111 =
2018-07-18 19:53 METAR KBFD 182353Z AUTO 33006KT 10SM CLR 21/11 A3007 RMK AO2 SLP172 T02110111
                 10244 20211 53002 =
2018-07-18 18:53 METAR KBFD 182253Z AUTO 36006KT 10SM CLR 23/11 A3006 RMK AO2 SLP172 T02280111 =
2018-07-18 17:53 METAR KBFD 182153Z AUTO 36008KT 10SM BKN050 24/11 A3006 RMK AO2 SLP171 T02390106
                 =
2018-07-18 17:34 METAR KBFD 182134Z AUTO 35006KT 10SM FEW002 SCT050 23/10 A3006 RMK AO2 T02280100
                 =
2018-07-18 16:53 METAR KBFD 182053Z AUTO 36006KT 10SM BKN055 24/11 A3006 RMK AO2 SLP170 T02390106
                 58004 =
2018-07-18 15:53 METAR KBFD 181953Z AUTO VRB04KT 10SM CLR 23/09 A3007 RMK AO2 SLP174 T02330094 =
2018-07-18 14:53 METAR KBFD 181853Z AUTO VRB06KT 10SM CLR 22/09 A3008 RMK AO2 SLP177 T02220094 =
2018-07-18 13:53 METAR KBFD 181753Z AUTO 03007G15KT 10SM FEW045 24/11 A3008 RMK AO2 SLP172
                 T02390106 10244 20150 58007 =
2018-07-18 12:53 METAR KBFD 181653Z AUTO 36005KT 10SM FEW039 SCT050 BKN060 21/12 A3009 RMK AO2
                 SLP181 T02110117 =
2018-07-18 11:53 METAR KBFD 181553Z AUTO 01005KT 10SM FEW033 BKN050 21/12 A3010 RMK AO2 SLP182
                 T02060122 =
2018-07-18 10:53 METAR KBFD 181453Z AUTO 33004KT 10SM FEW019 BKN045 19/14 A3010 RMK AO2 SLP183
                 T01890139 53008 =
2018-07-18 10:45 METAR KBFD 181445Z AUTO 36004KT 10SM FEW023 BKN045 OVC050 18/13 A3010 RMK AO2
                 T01830133 =
2018-07-18 09:53 METAR KBFD 181353Z AUTO 36008KT 330V060 10SM BKN018 BKN025 18/14 A3009 RMK AO2
                 SLP178 T01830139 =
2018-07-18 09:34 METAR KBFD 181334Z AUTO 35004KT 10SM BKN015 18/13 A3009 RMK AO2 T01780133 =
2018-07-18 08:53 METAR KBFD 181253Z AUTO 02005KT 10SM CLR 17/13 A3008 RMK AO2 SLP175 T01720133 =
2018-07-18 07:53 METAR KBFD 181153Z AUTO 35005KT 10SM FEW016 15/13 A3007 RMK AO2 SLP174 T01500128
                 10150 20100 51014 =
2018-07-18 06:53 METAR KBFD 181053Z AUTO 00000KT 10SM CLR 11/10 A3006 RMK AO2 SLP171 T01060100 =
2018-07-18 05:53 METAR KBFD 180953Z AUTO 00000KT 10SM CLR 11/09 A3005 RMK AO2 SLP166 T01060094 =
2018-07-18 04:53 METAR KBFD 180853Z AUTO 00000KT 10SM CLR 11/10 A3003 RMK AO2 SLP157 T01110100
                 50005 =
2018-07-18 03:53 METAR KBFD 180753Z AUTO 00000KT 10SM CLR 11/11 A3003 RMK AO2 SLP158 T01110106 =
2018-07-18 02:53 METAR KBFD 180653Z AUTO 00000KT 10SM CLR 11/11 A3002 RMK AO2 SLP154 T01110106 =
2018-07-18 01:53 METAR KBFD 180553Z AUTO 28004KT 10SM CLR 14/12 A3001 RMK AO2 SLP148 T01440122
                 10206 20122 53001 =

Support USWX by starting your Amazon purchase here.